Time;durP1;ratioP1;P1;durP2;ratioP2;P2;SDS_P1;SDS_P2;PMS_P1;PMS_P2;Temp;Humidity;BMP_temperature;BMP_pressure;BME280_temperature;BME280_humidity;BME280_pressure;Samples;Min_cycle;Max_cycle;Signal;HPM_P1;HPM_P2
2024/02/13 00:00:46;;;;;;;5.45;4.07;;;5.50;99.90;;;;;;4898329;29;20056;-78
2024/02/13 00:03:14;;;;;;;7.38;3.78;;;5.50;99.90;;;;;;4903412;29;20051;-78
2024/02/13 00:05:43;;;;;;;7.75;5.30;;;5.50;99.90;;;;;;4910729;29;20047;-78
2024/02/13 00:08:10;;;;;;;3.88;3.47;;;5.50;99.90;;;;;;4901712;29;20055;-79
2024/02/13 00:10:38;;;;;;;2.95;2.65;;;5.50;99.90;;;;;;4913666;29;20051;-78
2024/02/13 00:13:05;;;;;;;3.50;3.20;;;5.50;99.90;;;;;;4890492;29;20043;-78
2024/02/13 00:15:32;;;;;;;4.47;3.78;;;5.50;99.90;;;;;;4917542;29;20054;-78
2024/02/13 00:18:03;;;;;;;5.47;3.55;;;5.50;99.90;;;;;;4920978;29;20059;-79
2024/02/13 00:20:30;;;;;;;6.15;3.30;;;5.50;99.90;;;;;;4934365;29;20513;-78
2024/02/13 00:22:59;;;;;;;5.55;4.38;;;5.40;99.90;;;;;;4897205;29;20054;-78
2024/02/13 00:25:28;;;;;;;6.50;3.22;;;5.40;99.90;;;;;;4898721;29;20068;-78
2024/02/13 00:27:55;;;;;;;11.90;5.30;;;5.40;99.90;;;;;;4903873;29;20463;-78
2024/02/13 00:30:23;;;;;;;7.40;6.20;;;5.30;99.90;;;;;;4928183;29;20099;-78
2024/02/13 00:32:50;;;;;;;5.50;4.78;;;5.30;99.90;;;;;;4905998;29;20055;-79
2024/02/13 00:35:18;;;;;;;5.82;2.92;;;5.30;99.90;;;;;;4936502;29;20127;-79
2024/02/13 00:37:46;;;;;;;7.13;4.90;;;5.20;99.90;;;;;;4901480;29;20036;-79
2024/02/13 00:40:15;;;;;;;7.70;5.32;;;5.20;99.90;;;;;;4912014;29;20047;-79
2024/02/13 00:42:42;;;;;;;7.88;5.43;;;5.20;99.90;;;;;;4904831;29;20044;-78
2024/02/13 00:45:11;;;;;;;8.23;5.13;;;5.10;99.90;;;;;;4916653;29;20058;-78
2024/02/13 00:47:41;;;;;;;11.68;6.07;;;5.10;99.90;;;;;;4908588;29;20044;-78
2024/02/13 00:50:09;;;;;;;5.40;3.58;;;5.10;99.90;;;;;;4901534;29;20515;-78
2024/02/13 00:52:42;;;;;;;5.53;3.47;;;5.10;99.90;;;;;;4935083;29;20036;-78
2024/02/13 00:55:09;;;;;;;7.88;4.43;;;5.00;99.90;;;;;;4899709;29;20067;-78
2024/02/13 00:57:37;;;;;;;10.15;6.80;;;4.90;99.90;;;;;;4899982;29;20125;-79
2024/02/13 01:00:05;;;;;;;7.72;4.93;;;4.90;99.90;;;;;;4914976;29;20043;-78
2024/02/13 01:02:34;;;;;;;15.30;8.10;;;4.80;99.90;;;;;;4906235;28;20050;-78
2024/02/13 01:05:01;;;;;;;5.28;4.82;;;4.70;99.90;;;;;;4909712;29;20058;-78
2024/02/13 01:07:30;;;;;;;4.32;3.92;;;4.60;99.90;;;;;;4901657;29;20411;-78
2024/02/13 01:09:59;;;;;;;6.47;5.93;;;4.50;99.90;;;;;;4896237;29;20040;-78
2024/02/13 01:12:26;;;;;;;7.88;5.88;;;4.70;99.90;;;;;;4901906;29;20103;-78
2024/02/13 01:14:54;;;;;;;11.98;5.50;;;4.40;99.90;;;;;;4916551;29;20067;-78
2024/02/13 01:17:21;;;;;;;10.85;5.60;;;4.30;99.90;;;;;;4933188;29;20058;-78
2024/02/13 01:19:48;;;;;;;6.18;3.85;;;4.30;99.90;;;;;;4916223;29;20046;-78
2024/02/13 01:22:16;;;;;;;9.15;5.18;;;4.30;99.90;;;;;;4912656;29;20451;-79
2024/02/13 01:24:43;;;;;;;7.93;5.90;;;4.20;99.90;;;;;;4924131;29;20052;-78
2024/02/13 01:27:11;;;;;;;8.88;5.80;;;4.30;99.90;;;;;;4917171;29;20047;-78
2024/02/13 01:29:38;;;;;;;9.57;6.68;;;4.30;99.90;;;;;;4939318;29;20052;-78
2024/02/13 01:32:07;;;;;;;7.93;4.95;;;4.20;99.90;;;;;;4916995;29;20070;-79
2024/02/13 01:34:34;;;;;;;12.73;8.20;;;4.20;99.90;;;;;;4919220;29;20063;-78
2024/02/13 01:37:01;;;;;;;6.30;5.43;;;4.20;99.90;;;;;;4876147;29;20505;-78
2024/02/13 01:39:29;;;;;;;6.72;4.18;;;4.20;99.90;;;;;;4895040;29;20059;-78
2024/02/13 01:41:57;;;;;;;7.82;4.95;;;4.20;99.90;;;;;;4885428;29;20048;-78
2024/02/13 01:44:27;;;;;;;15.43;9.07;;;4.20;99.90;;;;;;4922170;29;20099;-78
2024/02/13 01:46:55;;;;;;;11.57;7.00;;;4.20;99.90;;;;;;4898077;29;20047;-78
2024/02/13 01:49:23;;;;;;;15.80;7.43;;;4.20;99.90;;;;;;4899679;29;20091;-79
2024/02/13 01:51:51;;;;;;;10.32;8.02;;;4.20;99.90;;;;;;4882829;29;20059;-78
2024/02/13 01:54:18;;;;;;;6.13;3.85;;;4.20;99.90;;;;;;4887077;29;20499;-78
2024/02/13 01:56:47;;;;;;;12.23;5.45;;;4.10;99.90;;;;;;4930154;29;20468;-78
2024/02/13 01:59:15;;;;;;;10.05;6.43;;;4.10;99.90;;;;;;4937934;29;20039;-79
2024/02/13 02:01:43;;;;;;;5.93;5.13;;;4.20;99.90;;;;;;4939718;29;20047;-78
2024/02/13 02:04:11;;;;;;;5.82;4.22;;;4.20;99.90;;;;;;4916243;29;20103;-78
2024/02/13 02:06:41;;;;;;;4.88;3.88;;;4.10;99.90;;;;;;4910814;29;20075;-78
2024/02/13 02:09:09;;;;;;;5.85;4.05;;;4.20;99.90;;;;;;4928901;29;20139;-78
2024/02/13 02:11:36;;;;;;;10.27;6.85;;;4.20;99.90;;;;;;4898844;29;20043;-78
2024/02/13 02:14:06;;;;;;;11.45;5.95;;;4.20;99.90;;;;;;4946202;29;20059;-78
2024/02/13 02:16:33;;;;;;;9.45;5.75;;;4.20;99.90;;;;;;4940553;28;20118;-78
2024/02/13 02:19:00;;;;;;;9.40;6.15;;;4.20;99.90;;;;;;4910431;29;20066;-77
2024/02/13 02:21:28;;;;;;;8.50;6.00;;;4.30;99.90;;;;;;4917929;29;20040;-78
2024/02/13 02:23:55;;;;;;;8.13;6.22;;;4.30;99.90;;;;;;4925595;29;20050;-78
2024/02/13 02:26:23;;;;;;;7.10;4.97;;;4.30;99.90;;;;;;4919202;29;20054;-78
2024/02/13 02:28:50;;;;;;;15.95;9.45;;;4.30;99.90;;;;;;4925886;29;20048;-78
2024/02/13 02:31:18;;;;;;;6.30;4.40;;;4.20;99.90;;;;;;4885200;29;20533;-78
2024/02/13 02:33:46;;;;;;;5.43;4.38;;;4.30;99.90;;;;;;4922508;29;20043;-78
2024/02/13 02:36:13;;;;;;;8.07;6.47;;;4.30;99.90;;;;;;4915887;29;20047;-77
2024/02/13 02:38:41;;;;;;;7.47;5.60;;;4.30;99.90;;;;;;4938421;29;20035;-78
2024/02/13 02:41:09;;;;;;;10.75;7.25;;;4.20;99.90;;;;;;4893019;29;20039;-78
2024/02/13 02:43:41;;;;;;;12.23;8.13;;;4.30;99.90;;;;;;4901696;29;20071;-78
2024/02/13 02:46:09;;;;;;;10.68;7.97;;;4.30;99.90;;;;;;4910154;29;20055;-78
2024/02/13 02:48:37;;;;;;;13.93;10.38;;;4.30;99.90;;;;;;4898496;29;20044;-78
2024/02/13 02:51:05;;;;;;;9.40;7.25;;;4.20;99.90;;;;;;4908879;29;20055;-78
2024/02/13 02:53:32;;;;;;;13.55;9.30;;;4.30;99.90;;;;;;4935574;29;20491;-78
2024/02/13 02:56:00;;;;;;;16.55;8.98;;;4.30;99.90;;;;;;4905331;29;20499;-78
2024/02/13 02:58:27;;;;;;;13.57;8.80;;;4.30;99.90;;;;;;4900832;29;20147;-78
2024/02/13 03:00:54;;;;;;;16.90;11.40;;;4.30;99.90;;;;;;4917917;29;20048;-78
2024/02/13 03:03:21;;;;;;;10.27;6.75;;;4.30;99.90;;;;;;4913972;29;20200;-78
2024/02/13 03:05:51;;;;;;;14.93;11.27;;;4.40;99.90;;;;;;4886021;29;20066;-78
2024/02/13 03:08:19;;;;;;;12.52;8.30;;;4.30;99.90;;;;;;4929400;29;20063;-78
2024/02/13 03:10:46;;;;;;;13.00;8.82;;;4.40;99.90;;;;;;4928176;29;20040;-78
2024/02/13 03:13:13;;;;;;;12.65;9.48;;;4.30;99.90;;;;;;4929413;29;20039;-78
2024/02/13 03:15:40;;;;;;;13.75;10.73;;;4.40;99.90;;;;;;4908676;29;20036;-78
2024/02/13 03:18:09;;;;;;;13.73;9.80;;;4.30;99.90;;;;;;4934867;29;20047;-78
2024/02/13 03:20:37;;;;;;;17.23;10.32;;;4.30;99.90;;;;;;4898097;29;20040;-77
2024/02/13 03:23:04;;;;;;;11.57;8.50;;;4.30;99.90;;;;;;4942261;28;20051;-78
2024/02/13 03:25:31;;;;;;;9.05;7.13;;;4.30;99.90;;;;;;4930957;29;20046;-78
2024/02/13 03:27:59;;;;;;;12.57;9.18;;;4.20;99.90;;;;;;4905310;29;20051;-78
2024/02/13 03:30:27;;;;;;;16.50;9.70;;;4.20;99.90;;;;;;4915111;29;20095;-78
2024/02/13 03:32:54;;;;;;;8.93;7.07;;;4.20;99.90;;;;;;4927292;29;20040;-78
2024/02/13 03:35:21;;;;;;;18.98;8.35;;;4.30;99.90;;;;;;4892308;29;20135;-78
2024/02/13 03:37:48;;;;;;;11.98;9.40;;;4.00;99.90;;;;;;4933101;29;20062;-78
2024/02/13 03:40:18;;;;;;;13.65;8.63;;;4.30;99.90;;;;;;4921013;29;20103;-78
2024/02/13 03:42:45;;;;;;;10.43;8.05;;;4.00;99.90;;;;;;4909389;29;20718;-77
2024/02/13 03:45:13;;;;;;;16.33;11.93;;;4.00;99.90;;;;;;4910757;29;20060;-78
2024/02/13 03:47:40;;;;;;;11.80;9.45;;;3.90;99.90;;;;;;4916400;29;20402;-78
2024/02/13 03:50:08;;;;;;;12.48;9.48;;;3.90;99.90;;;;;;4922183;29;20051;-78
2024/02/13 03:52:36;;;;;;;12.02;9.23;;;3.80;99.90;;;;;;4893364;29;20090;-78
2024/02/13 03:55:05;;;;;;;15.55;13.98;;;3.80;99.90;;;;;;4901194;29;20051;-78
2024/02/13 03:57:33;;;;;;;12.07;10.00;;;3.80;99.90;;;;;;4903004;29;20153;-77
2024/02/13 04:00:00;;;;;;;15.18;9.75;;;3.70;99.90;;;;;;4904655;29;20039;-78
2024/02/13 04:02:31;;;;;;;12.75;8.70;;;3.70;99.90;;;;;;4923902;29;20051;-78
2024/02/13 04:04:59;;;;;;;11.95;8.20;;;3.70;99.90;;;;;;4905654;29;20044;-77
2024/02/13 04:07:26;;;;;;;11.07;9.32;;;3.60;99.90;;;;;;4887342;29;20467;-78
2024/02/13 04:09:53;;;;;;;13.77;9.63;;;3.60;99.90;;;;;;4912070;29;20051;-78
2024/02/13 04:12:21;;;;;;;11.05;7.93;;;3.80;99.90;;;;;;4927014;29;20048;-78
2024/02/13 04:14:49;;;;;;;11.25;8.70;;;3.60;99.90;;;;;;4918220;29;20067;-78
2024/02/13 04:17:18;;;;;;;10.25;8.60;;;3.50;99.90;;;;;;4917127;29;20475;-78
2024/02/13 04:19:45;;;;;;;10.15;7.60;;;3.50;99.90;;;;;;4912015;29;20061;-78
2024/02/13 04:22:13;;;;;;;8.63;7.63;;;3.50;99.90;;;;;;4917246;29;20047;-78
2024/02/13 04:24:40;;;;;;;12.27;9.10;;;3.50;99.90;;;;;;4893690;29;20047;-77
2024/02/13 04:27:08;;;;;;;11.07;8.23;;;3.50;99.90;;;;;;4928131;29;20059;-78
2024/02/13 04:29:35;;;;;;;5.85;5.10;;;3.50;99.90;;;;;;4946549;29;20074;-78
2024/02/13 04:32:03;;;;;;;15.00;10.38;;;3.50;99.90;;;;;;4906256;29;20040;-78
2024/02/13 04:34:30;;;;;;;18.27;14.38;;;3.50;99.90;;;;;;4916323;29;20036;-78
2024/02/13 04:37:00;;;;;;;11.88;9.70;;;3.50;99.90;;;;;;4890656;29;20048;-78
2024/02/13 04:39:27;;;;;;;12.20;10.60;;;3.50;99.90;;;;;;4885401;29;20040;-78
2024/02/13 04:41:56;;;;;;;12.35;9.02;;;3.50;99.90;;;;;;4910499;29;20063;-78
2024/02/13 04:44:23;;;;;;;15.38;10.32;;;3.50;99.90;;;;;;4886475;29;20147;-78
2024/02/13 04:46:50;;;;;;;19.45;12.07;;;3.50;99.90;;;;;;4907592;29;20051;-78
2024/02/13 04:49:18;;;;;;;14.35;10.70;;;3.50;99.90;;;;;;4901258;29;20048;-78
2024/02/13 04:51:46;;;;;;;12.60;11.27;;;3.60;99.90;;;;;;4893730;29;20056;-78
2024/02/13 04:54:13;;;;;;;14.52;11.93;;;3.60;99.90;;;;;;4926620;29;20059;-78
2024/02/13 04:56:40;;;;;;;9.23;8.25;;;3.60;99.90;;;;;;4891965;29;20099;-78
2024/02/13 04:59:08;;;;;;;16.25;13.07;;;3.60;99.90;;;;;;4933100;29;20731;-78
2024/02/13 05:01:43;;;;;;;17.25;14.95;;;3.60;99.90;;;;;;4932856;29;20043;-77
2024/02/13 05:09:29;;;;;;;15.80;10.13;;;3.70;99.90;;;;;;4919301;29;20118;-78
2024/02/13 05:11:56;;;;;;;17.50;13.13;;;3.60;99.90;;;;;;4904582;29;20574;-78
2024/02/13 05:14:23;;;;;;;15.40;12.35;;;3.60;99.90;;;;;;4922982;29;20055;-78
2024/02/13 05:16:50;;;;;;;9.55;6.45;;;3.60;99.90;;;;;;4877219;29;20107;-79
2024/02/13 05:19:18;;;;;;;13.32;11.93;;;3.50;99.90;;;;;;4903220;29;20051;-78
2024/02/13 05:21:46;;;;;;;13.85;10.80;;;3.50;99.90;;;;;;4900908;29;20134;-78
2024/02/13 05:24:14;;;;;;;14.95;12.52;;;3.50;99.90;;;;;;4905080;29;20052;-80
2024/02/13 05:26:43;;;;;;;22.30;19.48;;;3.50;99.90;;;;;;4916442;29;20795;-78
2024/02/13 05:29:10;;;;;;;14.52;11.35;;;3.50;99.90;;;;;;4891341;29;20452;-78
2024/02/13 05:31:39;;;;;;;10.23;8.98;;;3.50;99.90;;;;;;4908787;29;20056;-78
2024/02/13 05:34:06;;;;;;;15.35;10.63;;;3.50;99.90;;;;;;4897775;29;20059;-78
2024/02/13 05:36:33;;;;;;;13.05;8.88;;;3.50;99.90;;;;;;4916740;29;20147;-78
2024/02/13 05:39:02;;;;;;;15.57;11.65;;;3.50;99.90;;;;;;4904600;29;20046;-78
2024/02/13 05:41:30;;;;;;;17.17;11.57;;;3.50;99.90;;;;;;4915669;29;20048;-78
2024/02/13 05:44:02;;;;;;;20.00;13.75;;;3.80;99.90;;;;;;4885651;29;20516;-78
2024/02/13 05:46:30;;;;;;;13.25;10.38;;;3.40;99.90;;;;;;4928722;29;20095;-78
2024/02/13 05:49:00;;;;;;;10.50;7.93;;;3.50;99.90;;;;;;4904786;29;20052;-78
2024/02/13 05:51:27;;;;;;;13.82;9.82;;;3.50;99.90;;;;;;4910378;29;20096;-79
2024/02/13 05:53:55;;;;;;;15.68;11.25;;;3.50;99.90;;;;;;4921451;29;20136;-78
2024/02/13 05:56:22;;;;;;;14.25;8.98;;;3.50;99.90;;;;;;4912424;29;20031;-78
2024/02/13 05:58:53;;;;;;;;;;;3.40;99.90;;;;;;4899053;29;20411;-78
2024/02/13 06:01:20;;;;;;;19.13;13.80;;;3.40;99.90;;;;;;4926290;29;19923;-78
2024/02/13 06:03:48;;;;;;;22.85;14.63;;;3.40;99.90;;;;;;4900121;29;20048;-78
2024/02/13 06:06:15;;;;;;;14.20;10.38;;;3.40;99.90;;;;;;4876112;29;20083;-78
2024/02/13 06:08:43;;;;;;;18.05;13.30;;;3.40;99.90;;;;;;4885676;29;20130;-79
2024/02/13 06:11:11;;;;;;;20.85;15.27;;;3.40;99.90;;;;;;4903679;29;20057;-77
2024/02/13 06:13:41;;;;;;;18.33;14.32;;;3.50;99.90;;;;;;4902270;29;20123;-78
2024/02/13 06:16:08;;;;;;;17.98;10.10;;;3.50;99.90;;;;;;4895388;29;20490;-78
2024/02/13 06:18:36;;;;;;;22.23;17.98;;;3.50;99.90;;;;;;4901770;29;20123;-79
2024/02/13 06:21:04;;;;;;;26.10;17.77;;;3.40;99.90;;;;;;4893821;29;20055;-78
2024/02/13 06:23:31;;;;;;;25.27;14.45;;;3.70;99.90;;;;;;4902207;29;20044;-78
2024/02/13 06:25:58;;;;;;;19.38;14.27;;;3.50;99.90;;;;;;4918348;29;20051;-78
2024/02/13 06:28:26;;;;;;;17.50;13.35;;;3.50;99.90;;;;;;4902542;29;20043;-78
2024/02/13 06:30:55;;;;;;;19.80;16.35;;;3.50;99.90;;;;;;4917882;29;20079;-79
2024/02/13 06:33:22;;;;;;;18.75;14.15;;;3.50;99.90;;;;;;4929554;29;20040;-78
2024/02/13 06:35:49;;;;;;;25.75;19.63;;;3.50;99.90;;;;;;4885334;29;20052;-78
2024/02/13 06:38:16;;;;;;;22.30;14.90;;;3.50;99.90;;;;;;4909609;29;20066;-78
2024/02/13 06:40:45;;;;;;;27.08;23.13;;;3.60;99.90;;;;;;4920410;29;20054;-78
2024/02/13 06:43:13;;;;;;;28.08;20.95;;;3.60;99.90;;;;;;4899184;29;20106;-78
2024/02/13 06:45:40;;;;;;;24.23;18.75;;;3.60;99.90;;;;;;4884820;29;20096;-78
2024/02/13 06:48:08;;;;;;;20.95;16.75;;;3.60;99.90;;;;;;4920015;29;20048;-78
2024/02/13 06:50:35;;;;;;;17.20;14.77;;;3.60;99.90;;;;;;4916058;28;20057;-78
2024/02/13 06:53:03;;;;;;;16.45;13.57;;;3.70;99.90;;;;;;4941990;29;20423;-78
2024/02/13 06:55:31;;;;;;;14.13;12.20;;;3.70;99.90;;;;;;4923894;29;20499;-78
2024/02/13 06:57:58;;;;;;;18.20;13.57;;;3.70;99.90;;;;;;4902110;29;20043;-78
2024/02/13 07:00:26;;;;;;;26.13;22.92;;;3.70;99.90;;;;;;4886309;29;20044;-78
2024/02/13 07:02:54;;;;;;;17.73;12.73;;;3.70;99.90;;;;;;4910477;29;20051;-78
2024/02/13 07:05:22;;;;;;;12.60;10.63;;;3.70;99.90;;;;;;4921911;29;20043;-78
2024/02/13 07:07:50;;;;;;;15.15;13.55;;;3.80;99.90;;;;;;4901889;29;20427;-78
2024/02/13 07:10:18;;;;;;;18.42;13.98;;;3.80;99.90;;;;;;4901289;29;20689;-78
2024/02/13 07:12:45;;;;;;;13.25;10.98;;;3.80;99.90;;;;;;4907718;29;20123;-77
2024/02/13 07:15:12;;;;;;;20.50;15.15;;;3.80;99.90;;;;;;4912997;29;20040;-78
2024/02/13 07:17:40;;;;;;;13.40;12.02;;;3.80;99.90;;;;;;4907410;29;20135;-78
2024/02/13 07:20:13;;;;;;;16.40;12.93;;;3.80;99.90;;;;;;4894919;29;20050;-78
2024/02/13 07:22:41;;;;;;;20.75;15.75;;;3.90;99.90;;;;;;4885622;29;20372;-78
2024/02/13 07:25:09;;;;;;;17.90;15.82;;;3.90;99.90;;;;;;4900187;29;20048;-78
2024/02/13 07:27:37;;;;;;;19.13;15.18;;;3.90;99.90;;;;;;4887920;29;20040;-78
2024/02/13 07:30:10;;;;;;;27.38;24.58;;;3.90;99.90;;;;;;4905570;29;20483;-79
2024/02/13 07:32:42;;;;;;;13.68;11.85;;;3.90;99.90;;;;;;4924389;29;20039;-79
2024/02/13 07:35:09;;;;;;;24.77;22.02;;;4.00;99.90;;;;;;4906628;29;20444;-79
2024/02/13 07:37:36;;;;;;;16.27;13.85;;;4.00;99.90;;;;;;4913752;29;20118;-79
2024/02/13 07:40:05;;;;;;;17.23;14.65;;;4.00;99.90;;;;;;4901061;29;20044;-79
2024/02/13 07:42:33;;;;;;;12.93;11.60;;;4.00;99.90;;;;;;4913119;29;20455;-79
2024/02/13 07:45:00;;;;;;;24.67;22.20;;;4.10;99.90;;;;;;4886294;29;20501;-78
2024/02/13 07:47:28;;;;;;;21.33;19.05;;;4.10;99.90;;;;;;4902546;29;20047;-79
2024/02/13 07:49:57;;;;;;;19.33;16.95;;;4.20;99.90;;;;;;4900664;29;20043;-79
2024/02/13 07:52:24;;;;;;;22.65;20.30;;;4.20;99.90;;;;;;4910892;29;20059;-79
2024/02/13 07:54:52;;;;;;;17.85;14.32;;;4.20;99.90;;;;;;4916265;29;20036;-79
2024/02/13 07:57:21;;;;;;;14.38;12.90;;;4.30;99.90;;;;;;4891245;29;20044;-79
2024/02/13 07:59:54;;;;;;;17.55;15.05;;;4.30;99.90;;;;;;4904061;29;20508;-79
2024/02/13 08:02:23;;;;;;;18.52;14.77;;;4.40;99.90;;;;;;4931874;29;20499;-79
2024/02/13 08:04:54;;;;;;;19.13;15.35;;;4.40;99.90;;;;;;4927435;29;20048;-79
2024/02/13 08:07:27;;;;;;;17.55;15.35;;;4.50;99.90;;;;;;4924635;29;20044;-79
2024/02/13 08:09:55;;;;;;;18.63;16.02;;;4.80;99.90;;;;;;4920179;29;20705;-79
2024/02/13 08:12:22;;;;;;;20.33;17.05;;;4.50;99.90;;;;;;4902916;29;20058;-79
2024/02/13 08:14:49;;;;;;;17.23;15.05;;;4.60;99.90;;;;;;4918689;29;20051;-79
2024/02/13 08:17:16;;;;;;;15.15;13.27;;;4.70;99.90;;;;;;4900863;29;20047;-79
2024/02/13 08:19:43;;;;;;;20.67;14.50;;;4.70;99.90;;;;;;4900654;29;20490;-79
2024/02/13 08:22:11;;;;;;;16.13;13.90;;;4.80;99.90;;;;;;4910529;29;20166;-79
2024/02/13 08:24:38;;;;;;;20.60;16.05;;;4.90;99.90;;;;;;4918017;29;20513;-79
2024/02/13 08:27:07;;;;;;;17.38;15.55;;;4.90;99.90;;;;;;4909310;29;20072;-79
2024/02/13 08:29:34;;;;;;;14.73;12.13;;;5.00;99.90;;;;;;4916599;29;20048;-79
2024/02/13 08:32:06;;;;;;;21.33;16.20;;;5.00;99.90;;;;;;4923665;29;20044;-79
2024/02/13 08:34:33;;;;;;;17.90;12.93;;;5.10;99.90;;;;;;4918097;29;20460;-79
2024/02/13 08:37:01;;;;;;;17.48;15.48;;;5.20;99.90;;;;;;4906230;29;20071;-80
2024/02/13 08:39:28;;;;;;;21.73;19.55;;;5.20;99.90;;;;;;4907381;29;20036;-79
2024/02/13 08:41:58;;;;;;;16.67;14.88;;;5.30;99.90;;;;;;4885057;29;20063;-79
2024/02/13 08:44:26;;;;;;;15.02;12.18;;;5.40;99.90;;;;;;4885844;29;20040;-79
2024/02/13 08:46:53;;;;;;;13.18;11.45;;;5.40;99.90;;;;;;4912566;29;20110;-79
2024/02/13 08:49:21;;;;;;;16.20;11.82;;;5.50;99.90;;;;;;4932700;29;20051;-80
2024/02/13 08:51:48;;;;;;;15.27;12.95;;;5.60;99.90;;;;;;4889710;29;20091;-80
2024/02/13 08:54:16;;;;;;;11.95;10.20;;;5.70;99.90;;;;;;4900991;29;20058;-79
2024/02/13 08:56:44;;;;;;;10.10;8.98;;;5.80;99.90;;;;;;4896681;29;20040;-80
2024/02/13 08:59:11;;;;;;;12.43;11.02;;;5.80;99.90;;;;;;4900519;29;20055;-80
2024/02/13 09:01:39;;;;;;;21.50;16.35;;;6.00;99.90;;;;;;4916979;29;20066;-79
2024/02/13 09:04:10;;;;;;;12.80;8.98;;;6.10;99.90;;;;;;4901070;29;20453;-79
2024/02/13 09:06:37;;;;;;;18.25;16.38;;;6.20;99.90;;;;;;4932481;29;20051;-79
2024/02/13 09:09:05;;;;;;;12.48;10.18;;;6.20;99.90;;;;;;4885137;29;20051;-79
2024/02/13 09:11:33;;;;;;;11.27;9.57;;;6.30;99.90;;;;;;4917409;29;20462;-80
2024/02/13 09:14:00;;;;;;;10.68;9.23;;;6.40;99.90;;;;;;4917812;29;20052;-80
2024/02/13 09:16:28;;;;;;;17.25;13.70;;;6.50;99.90;;;;;;4900050;29;20047;-80
2024/02/13 09:18:56;;;;;;;14.90;13.27;;;6.70;99.90;;;;;;4893009;29;20052;-80
2024/02/13 09:21:24;;;;;;;23.23;12.25;;;6.80;99.90;;;;;;4915936;29;20127;-79
2024/02/13 09:23:51;;;;;;;18.30;13.88;;;7.00;99.90;;;;;;4891776;29;20040;-80
2024/02/13 09:26:19;;;;;;;12.30;9.90;;;7.10;99.90;;;;;;4917144;29;20043;-80
2024/02/13 09:28:46;;;;;;;16.65;13.15;;;7.20;99.90;;;;;;4931218;29;20052;-81
2024/02/13 09:31:14;;;;;;;13.40;11.95;;;7.30;99.90;;;;;;4900455;29;20048;-79
2024/02/13 09:33:41;;;;;;;12.02;9.60;;;7.30;99.90;;;;;;4896333;29;20044;-80
2024/02/13 09:36:14;;;;;;;14.80;9.15;;;7.40;99.90;;;;;;4895494;29;20084;-80
2024/02/13 09:38:43;;;;;;;11.65;8.32;;;7.50;99.90;;;;;;4920774;28;20050;-79
2024/02/13 09:41:10;;;;;;;16.55;11.25;;;7.60;99.90;;;;;;4924652;29;20055;-79
2024/02/13 09:43:38;;;;;;;17.77;13.60;;;7.70;99.90;;;;;;4900035;29;20044;-79
2024/02/13 09:46:09;;;;;;;;;;;7.70;99.90;;;;;;4920239;29;20051;-80
2024/02/13 09:48:38;;;;;;;10.68;8.80;;;7.80;99.90;;;;;;4899601;29;20019;-80
2024/02/13 09:51:09;;;;;;;12.60;8.70;;;7.80;99.90;;;;;;4877264;29;20040;-79
2024/02/13 09:53:40;;;;;;;8.07;6.75;;;8.00;99.90;;;;;;4913169;29;20044;-79
2024/02/13 09:56:12;;;;;;;12.73;7.88;;;8.10;99.90;;;;;;4940108;29;20053;-80
2024/02/13 09:58:41;;;;;;;9.50;6.80;;;8.20;99.90;;;;;;4901993;29;20043;-80
2024/02/13 10:01:08;;;;;;;12.05;10.82;;;8.30;99.90;;;;;;4919963;29;20060;-79
2024/02/13 10:03:39;;;;;;;11.00;8.90;;;8.40;99.90;;;;;;4917226;29;20071;-79
2024/02/13 10:06:06;;;;;;;12.70;8.45;;;8.40;99.90;;;;;;4902067;29;20661;-79
2024/02/13 10:08:37;;;;;;;14.43;13.00;;;8.40;99.90;;;;;;4886880;29;20050;-80
2024/02/13 10:11:12;;;;;;;12.10;8.55;;;8.30;99.90;;;;;;4902850;29;20048;-79
2024/02/13 10:13:39;;;;;;;14.15;11.45;;;8.40;99.90;;;;;;4885566;29;20043;-80
2024/02/13 10:16:26;;;;;;;8.57;7.65;;;8.50;99.90;;;;;;4892291;29;20114;-80
2024/02/13 10:18:57;;;;;;;12.18;9.13;;;8.60;99.90;;;;;;4901404;29;20040;-80
2024/02/13 10:21:25;;;;;;;10.88;8.27;;;8.70;99.90;;;;;;4902187;29;20044;-80
2024/02/13 10:24:09;;;;;;;17.20;9.95;;;8.70;99.90;;;;;;4883006;29;20043;-79
2024/02/13 10:26:37;;;;;;;12.40;7.85;;;8.60;99.90;;;;;;4918165;29;20043;-80
2024/02/13 10:29:04;;;;;;;10.45;8.70;;;8.50;99.90;;;;;;4886660;29;20503;-79
2024/02/13 10:31:34;;;;;;;10.70;7.75;;;8.70;99.90;;;;;;4901484;29;20122;-80
2024/02/13 10:34:07;;;;;;;9.70;7.53;;;8.70;99.90;;;;;;4904937;29;20131;-80
2024/02/13 10:36:36;;;;;;;13.25;11.85;;;8.80;99.90;;;;;;4903826;29;20507;-79
2024/02/13 10:39:08;;;;;;;9.93;8.45;;;8.70;99.90;;;;;;4889546;29;20051;-80
2024/02/13 10:41:39;;;;;;;10.00;7.05;;;8.90;99.90;;;;;;4903540;29;20447;-80
2024/02/13 10:44:12;;;;;;;10.50;7.95;;;9.00;99.90;;;;;;4920861;29;20056;-80
2024/02/13 10:46:40;;;;;;;10.82;9.18;;;9.20;99.90;;;;;;4902204;29;20044;-80
2024/02/13 10:49:20;;;;;;;10.02;6.40;;;9.20;99.90;;;;;;4902445;29;20673;-80
2024/02/13 10:51:48;;;;;;;8.80;6.95;;;9.20;99.90;;;;;;4918866;29;20146;-80
2024/02/13 10:54:16;;;;;;;10.43;8.82;;;9.30;99.90;;;;;;4906405;29;20055;-80
2024/02/13 10:56:45;;;;;;;11.52;8.95;;;9.30;99.90;;;;;;4911667;29;20047;-80
2024/02/13 10:59:14;;;;;;;9.95;8.52;;;9.30;99.90;;;;;;4916453;29;20123;-80
2024/02/13 11:01:46;;;;;;;10.95;9.68;;;9.40;99.90;;;;;;4901586;29;20093;-79
2024/02/13 11:04:15;;;;;;;7.90;6.88;;;9.40;99.90;;;;;;4899322;29;20079;-80
2024/02/13 11:06:43;;;;;;;13.15;7.70;;;9.60;99.90;;;;;;4898218;29;20039;-80
2024/02/13 11:09:13;;;;;;;8.90;8.10;;;9.50;99.90;;;;;;4931341;29;20044;-80
2024/02/13 11:11:45;;;;;;;9.07;7.20;;;9.50;99.90;;;;;;4916789;29;20760;-80
2024/02/13 11:14:17;;;;;;;9.00;6.28;;;9.30;99.90;;;;;;4903581;29;20538;-80
2024/02/13 11:16:55;;;;;;;9.63;8.70;;;9.20;99.90;;;;;;4912926;29;20040;-80
2024/02/13 11:19:24;;;;;;;8.02;5.70;;;9.20;99.90;;;;;;4935789;29;20529;-79
2024/02/13 11:21:53;;;;;;;10.98;7.57;;;9.30;99.90;;;;;;4901672;29;20492;-79
2024/02/13 11:24:21;;;;;;;8.02;6.07;;;9.50;99.90;;;;;;4900872;29;20055;-80
2024/02/13 11:26:49;;;;;;;6.30;5.70;;;9.70;99.90;;;;;;4915937;29;20043;-80
2024/02/13 11:29:21;;;;;;;9.90;7.53;;;10.20;99.90;;;;;;4901464;29;20079;-80
2024/02/13 11:31:57;;;;;;;8.02;7.07;;;10.60;99.90;;;;;;4898481;29;20043;-80
2024/02/13 11:34:41;;;;;;;;;;;11.00;99.90;;;;;;4896168;29;20512;-79
2024/02/13 11:37:20;;;;;;;8.60;7.70;;;11.00;99.90;;;;;;4900683;29;19922;-80
2024/02/13 11:39:48;;;;;;;6.55;4.90;;;10.90;99.90;;;;;;4904071;29;20047;-80
2024/02/13 11:42:21;;;;;;;9.43;5.47;;;10.70;99.90;;;;;;4892892;29;20048;-78
2024/02/13 11:44:50;;;;;;;7.05;4.80;;;10.60;99.90;;;;;;4924621;29;20484;-79
2024/02/13 11:47:24;;;;;;;9.38;6.57;;;10.50;99.90;;;;;;4899086;29;20048;-79
2024/02/13 11:49:51;;;;;;;8.63;6.85;;;10.60;99.90;;;;;;4902300;29;20055;-79
2024/02/13 11:52:21;;;;;;;7.45;5.75;;;10.60;99.90;;;;;;4916283;29;20048;-80
2024/02/13 11:54:48;;;;;;;5.82;4.88;;;10.60;99.90;;;;;;4900502;29;20048;-79
2024/02/13 11:57:19;;;;;;;4.15;3.75;;;10.70;99.90;;;;;;4924074;29;20198;-79
2024/02/13 12:00:01;;;;;;;7.45;5.28;;;10.70;99.90;;;;;;4918487;29;20075;-79
2024/02/13 12:02:30;;;;;;;8.63;6.05;;;10.60;99.90;;;;;;4915969;29;20051;-79
2024/02/13 12:04:57;;;;;;;8.82;5.10;;;10.40;99.90;;;;;;4908230;29;20055;-79
2024/02/13 12:07:26;;;;;;;7.18;6.13;;;10.40;99.90;;;;;;4918652;29;20086;-79
2024/02/13 12:09:53;;;;;;;9.68;6.72;;;10.30;99.90;;;;;;4917126;29;20134;-78
2024/02/13 12:12:21;;;;;;;11.57;6.10;;;10.20;99.90;;;;;;4903064;29;20086;-79
2024/02/13 12:14:50;;;;;;;6.25;4.60;;;10.00;99.90;;;;;;4923369;29;20467;-79
2024/02/13 12:17:20;;;;;;;7.65;6.80;;;9.90;99.90;;;;;;4911194;29;20052;-78
2024/02/13 12:19:48;;;;;;;5.72;3.97;;;9.80;99.90;;;;;;4881776;29;20044;-78
2024/02/13 12:22:17;;;;;;;5.25;4.43;;;9.80;99.90;;;;;;4911581;29;20040;-78
2024/02/13 12:24:46;;;;;;;6.35;4.65;;;9.60;99.90;;;;;;4900783;29;20048;-79
2024/02/13 12:27:15;;;;;;;7.95;3.90;;;9.70;99.90;;;;;;4911354;29;20044;-79
2024/02/13 12:29:43;;;;;;;4.38;3.95;;;9.60;99.90;;;;;;4892254;29;20062;-78
2024/02/13 12:32:20;;;;;;;11.63;4.57;;;9.50;99.90;;;;;;4921053;29;20458;-78
2024/02/13 12:34:48;;;;;;;6.90;3.85;;;9.50;99.90;;;;;;4931229;29;20044;-79
2024/02/13 12:37:20;;;;;;;4.68;3.20;;;9.40;99.90;;;;;;4916138;29;20048;-79
2024/02/13 12:39:49;;;;;;;8.30;3.90;;;9.50;99.90;;;;;;4914973;29;20128;-78
2024/02/13 12:42:19;;;;;;;5.00;2.70;;;9.50;99.90;;;;;;4900816;29;20059;-79
2024/02/13 12:44:48;;;;;;;2.83;2.35;;;9.50;99.90;;;;;;4918571;29;20209;-79
2024/02/13 12:47:19;;;;;;;5.20;3.20;;;9.60;99.90;;;;;;4931784;29;20066;-78
2024/02/13 12:49:47;;;;;;;3.85;3.03;;;9.60;99.90;;;;;;4900557;29;20130;-78
2024/02/13 12:52:22;;;;;;;3.05;2.28;;;9.60;99.90;;;;;;4904651;29;20054;-79
2024/02/13 12:54:51;;;;;;;4.63;3.22;;;9.60;99.90;;;;;;4918685;29;20052;-78
2024/02/13 12:57:19;;;;;;;2.95;2.13;;;9.60;99.90;;;;;;4904467;29;20071;-78